sensor_id;sensor_type;location;lat;lon;timestamp;temperature;humidity
37984;DHT22;61733;50.882;4.376;2022-08-21T00:01:28;18.10;86.40
37984;DHT22;61733;50.882;4.376;2022-08-21T00:03:56;18.10;86.70
37984;DHT22;61733;50.882;4.376;2022-08-21T00:06:26;18.00;86.90
37984;DHT22;61733;50.882;4.376;2022-08-21T00:08:52;18.00;87.20
37984;DHT22;61733;50.882;4.376;2022-08-21T00:11:18;18.00;87.60
37984;DHT22;61733;50.882;4.376;2022-08-21T00:13:44;18.00;87.70
37984;DHT22;61733;50.882;4.376;2022-08-21T00:16:10;17.90;87.90
37984;DHT22;61733;50.882;4.376;2022-08-21T00:18:36;17.90;88.20
37984;DHT22;61733;50.882;4.376;2022-08-21T00:21:03;17.90;88.30
37984;DHT22;61733;50.882;4.376;2022-08-21T00:23:29;17.90;88.60
37984;DHT22;61733;50.882;4.376;2022-08-21T00:25:55;17.80;88.80
37984;DHT22;61733;50.882;4.376;2022-08-21T00:28:21;17.80;89.10
37984;DHT22;61733;50.882;4.376;2022-08-21T00:30:46;17.80;89.30
37984;DHT22;61733;50.882;4.376;2022-08-21T00:33:12;17.80;89.50
37984;DHT22;61733;50.882;4.376;2022-08-21T00:35:40;17.80;89.70
37984;DHT22;61733;50.882;4.376;2022-08-21T00:38:08;17.70;90.00
37984;DHT22;61733;50.882;4.376;2022-08-21T00:40:56;17.70;90.10
37984;DHT22;61733;50.882;4.376;2022-08-21T00:43:30;17.60;90.10
37984;DHT22;61733;50.882;4.376;2022-08-21T00:45:57;17.60;90.30
37984;DHT22;61733;50.882;4.376;2022-08-21T00:48:24;17.60;90.50
37984;DHT22;61733;50.882;4.376;2022-08-21T00:51:00;17.60;90.60
37984;DHT22;61733;50.882;4.376;2022-08-21T00:53:28;17.60;90.80
37984;DHT22;61733;50.882;4.376;2022-08-21T00:55:55;17.60;90.90
37984;DHT22;61733;50.882;4.376;2022-08-21T00:58:21;17.50;90.90
37984;DHT22;61733;50.882;4.376;2022-08-21T01:00:50;17.50;91.00
37984;DHT22;61733;50.882;4.376;2022-08-21T01:03:18;17.50;91.20
37984;DHT22;61733;50.882;4.376;2022-08-21T01:05:45;17.50;91.30
37984;DHT22;61733;50.882;4.376;2022-08-21T01:08:12;17.50;91.30
37984;DHT22;61733;50.882;4.376;2022-08-21T01:10:39;17.40;91.70
37984;DHT22;61733;50.882;4.376;2022-08-21T01:13:10;17.40;91.40
37984;DHT22;61733;50.882;4.376;2022-08-21T01:15:43;17.40;91.50
37984;DHT22;61733;50.882;4.376;2022-08-21T01:18:10;17.40;91.70
37984;DHT22;61733;50.882;4.376;2022-08-21T01:20:37;17.40;91.80
37984;DHT22;61733;50.882;4.376;2022-08-21T01:23:05;17.40;91.90
37984;DHT22;61733;50.882;4.376;2022-08-21T01:25:33;17.30;92.00
37984;DHT22;61733;50.882;4.376;2022-08-21T01:28:04;17.30;92.10
37984;DHT22;61733;50.882;4.376;2022-08-21T01:30:34;17.30;92.20
37984;DHT22;61733;50.882;4.376;2022-08-21T01:33:00;17.30;92.30
37984;DHT22;61733;50.882;4.376;2022-08-21T01:35:26;17.30;92.50
37984;DHT22;61733;50.882;4.376;2022-08-21T01:37:52;17.20;92.60
37984;DHT22;61733;50.882;4.376;2022-08-21T01:40:18;17.20;92.70
37984;DHT22;61733;50.882;4.376;2022-08-21T01:42:46;17.20;92.80
37984;DHT22;61733;50.882;4.376;2022-08-21T01:45:14;17.20;92.90
37984;DHT22;61733;50.882;4.376;2022-08-21T01:47:40;17.10;93.10
37984;DHT22;61733;50.882;4.376;2022-08-21T01:50:08;17.10;93.20
37984;DHT22;61733;50.882;4.376;2022-08-21T01:52:35;17.00;93.20
37984;DHT22;61733;50.882;4.376;2022-08-21T01:55:02;17.00;93.40
37984;DHT22;61733;50.882;4.376;2022-08-21T01:57:28;17.00;93.50
37984;DHT22;61733;50.882;4.376;2022-08-21T01:59:54;17.00;93.70
37984;DHT22;61733;50.882;4.376;2022-08-21T02:02:20;16.90;93.80
37984;DHT22;61733;50.882;4.376;2022-08-21T02:04:45;16.90;94.00
37984;DHT22;61733;50.882;4.376;2022-08-21T02:07:11;16.80;94.10
37984;DHT22;61733;50.882;4.376;2022-08-21T02:09:37;16.80;94.30
37984;DHT22;61733;50.882;4.376;2022-08-21T02:12:03;16.80;94.50
37984;DHT22;61733;50.882;4.376;2022-08-21T02:14:29;16.70;94.60
37984;DHT22;61733;50.882;4.376;2022-08-21T02:16:55;16.70;94.70
37984;DHT22;61733;50.882;4.376;2022-08-21T02:19:21;16.70;94.90
37984;DHT22;61733;50.882;4.376;2022-08-21T02:21:47;16.60;95.00
37984;DHT22;61733;50.882;4.376;2022-08-21T02:24:13;16.60;95.10
37984;DHT22;61733;50.882;4.376;2022-08-21T02:26:39;16.60;95.20
37984;DHT22;61733;50.882;4.376;2022-08-21T02:29:05;16.60;95.30
37984;DHT22;61733;50.882;4.376;2022-08-21T02:31:31;16.60;95.50
37984;DHT22;61733;50.882;4.376;2022-08-21T02:33:57;16.60;95.60
37984;DHT22;61733;50.882;4.376;2022-08-21T02:36:23;16.50;95.70
37984;DHT22;61733;50.882;4.376;2022-08-21T02:38:48;16.50;96.10
37984;DHT22;61733;50.882;4.376;2022-08-21T02:41:17;16.50;95.90
37984;DHT22;61733;50.882;4.376;2022-08-21T02:43:43;16.40;96.10
37984;DHT22;61733;50.882;4.376;2022-08-21T02:46:12;16.40;96.20
37984;DHT22;61733;50.882;4.376;2022-08-21T02:48:39;16.40;96.40
37984;DHT22;61733;50.882;4.376;2022-08-21T02:51:14;16.40;96.60
37984;DHT22;61733;50.882;4.376;2022-08-21T02:53:42;16.30;96.60
37984;DHT22;61733;50.882;4.376;2022-08-21T02:56:12;16.30;96.80
37984;DHT22;61733;50.882;4.376;2022-08-21T02:58:42;16.30;97.00
37984;DHT22;61733;50.882;4.376;2022-08-21T03:01:09;16.30;97.20
37984;DHT22;61733;50.882;4.376;2022-08-21T03:03:37;16.20;97.20
37984;DHT22;61733;50.882;4.376;2022-08-21T03:06:05;16.20;97.40
37984;DHT22;61733;50.882;4.376;2022-08-21T03:08:31;16.20;97.50
37984;DHT22;61733;50.882;4.376;2022-08-21T03:10:57;16.20;97.70
37984;DHT22;61733;50.882;4.376;2022-08-21T03:13:26;16.20;97.80
37984;DHT22;61733;50.882;4.376;2022-08-21T03:15:54;16.10;97.80
37984;DHT22;61733;50.882;4.376;2022-08-21T03:18:20;16.10;98.00
37984;DHT22;61733;50.882;4.376;2022-08-21T03:20:46;16.10;98.10
37984;DHT22;61733;50.882;4.376;2022-08-21T03:23:13;16.10;98.20
37984;DHT22;61733;50.882;4.376;2022-08-21T03:25:40;16.10;98.30
37984;DHT22;61733;50.882;4.376;2022-08-21T03:28:08;16.10;98.40
37984;DHT22;61733;50.882;4.376;2022-08-21T03:30:35;16.10;98.50
37984;DHT22;61733;50.882;4.376;2022-08-21T03:33:01;16.10;98.60
37984;DHT22;61733;50.882;4.376;2022-08-21T03:35:27;16.10;98.80
37984;DHT22;61733;50.882;4.376;2022-08-21T03:37:54;16.00;98.80
37984;DHT22;61733;50.882;4.376;2022-08-21T03:40:21;16.00;98.90
37984;DHT22;61733;50.882;4.376;2022-08-21T03:42:51;16.00;99.00
37984;DHT22;61733;50.882;4.376;2022-08-21T03:45:18;16.00;99.00
37984;DHT22;61733;50.882;4.376;2022-08-21T03:48:00;16.00;99.00
37984;DHT22;61733;50.882;4.376;2022-08-21T03:50:30;16.00;99.10
37984;DHT22;61733;50.882;4.376;2022-08-21T03:52:56;16.00;99.20
37984;DHT22;61733;50.882;4.376;2022-08-21T03:55:23;15.90;99.30
37984;DHT22;61733;50.882;4.376;2022-08-21T03:57:49;15.90;99.40
37984;DHT22;61733;50.882;4.376;2022-08-21T04:00:16;15.90;99.50
37984;DHT22;61733;50.882;4.376;2022-08-21T04:02:42;15.90;99.60
37984;DHT22;61733;50.882;4.376;2022-08-21T04:05:10;15.90;99.70
37984;DHT22;61733;50.882;4.376;2022-08-21T04:07:35;15.90;99.70
37984;DHT22;61733;50.882;4.376;2022-08-21T04:10:03;15.80;99.70
37984;DHT22;61733;50.882;4.376;2022-08-21T04:12:28;15.80;99.80
37984;DHT22;61733;50.882;4.376;2022-08-21T04:14:55;15.80;99.90
37984;DHT22;61733;50.882;4.376;2022-08-21T04:17:22;15.80;99.90
37984;DHT22;61733;50.882;4.376;2022-08-21T04:19:47;15.80;99.90
37984;DHT22;61733;50.882;4.376;2022-08-21T04:22:15;15.80;99.90
37984;DHT22;61733;50.882;4.376;2022-08-21T04:24:40;15.80;99.90
37984;DHT22;61733;50.882;4.376;2022-08-21T04:27:06;15.80;99.90
37984;DHT22;61733;50.882;4.376;2022-08-21T04:29:32;15.80;99.90
37984;DHT22;61733;50.882;4.376;2022-08-21T04:31:58;15.70;99.90
37984;DHT22;61733;50.882;4.376;2022-08-21T04:34:24;15.70;99.90
37984;DHT22;61733;50.882;4.376;2022-08-21T04:36:49;15.70;99.90
37984;DHT22;61733;50.882;4.376;2022-08-21T04:39:15;15.70;99.90
37984;DHT22;61733;50.882;4.376;2022-08-21T04:41:40;15.70;99.90
37984;DHT22;61733;50.882;4.376;2022-08-21T04:44:06;15.70;99.90
37984;DHT22;61733;50.882;4.376;2022-08-21T04:46:32;15.70;99.90
37984;DHT22;61733;50.882;4.376;2022-08-21T04:48:58;15.70;99.90
37984;DHT22;61733;50.882;4.376;2022-08-21T04:51:26;15.70;99.90
37984;DHT22;61733;50.882;4.376;2022-08-21T04:54:00;15.70;99.90
37984;DHT22;61733;50.882;4.376;2022-08-21T04:56:33;15.70;99.90
37984;DHT22;61733;50.882;4.376;2022-08-21T04:59:04;15.70;99.90
37984;DHT22;61733;50.882;4.376;2022-08-21T05:01:34;15.70;99.90
37984;DHT22;61733;50.882;4.376;2022-08-21T05:04:04;15.70;99.90
37984;DHT22;61733;50.882;4.376;2022-08-21T05:06:34;15.70;99.90
37984;DHT22;61733;50.882;4.376;2022-08-21T05:09:03;15.70;99.90
37984;DHT22;61733;50.882;4.376;2022-08-21T05:11:30;15.70;99.90
37984;DHT22;61733;50.882;4.376;2022-08-21T05:13:56;15.80;99.90
37984;DHT22;61733;50.882;4.376;2022-08-21T05:16:22;15.80;99.90
37984;DHT22;61733;50.882;4.376;2022-08-21T05:18:48;15.80;99.90
37984;DHT22;61733;50.882;4.376;2022-08-21T05:21:13;15.80;99.90
37984;DHT22;61733;50.882;4.376;2022-08-21T05:23:39;15.80;99.90
37984;DHT22;61733;50.882;4.376;2022-08-21T05:26:05;15.80;99.90
37984;DHT22;61733;50.882;4.376;2022-08-21T05:28:31;15.90;99.90
37984;DHT22;61733;50.882;4.376;2022-08-21T05:30:57;15.80;99.90
37984;DHT22;61733;50.882;4.376;2022-08-21T05:33:23;15.90;99.90
37984;DHT22;61733;50.882;4.376;2022-08-21T05:35:51;15.90;99.90
37984;DHT22;61733;50.882;4.376;2022-08-21T05:38:18;15.90;99.90
37984;DHT22;61733;50.882;4.376;2022-08-21T05:40:44;16.00;99.90
37984;DHT22;61733;50.882;4.376;2022-08-21T05:43:09;16.00;99.90
37984;DHT22;61733;50.882;4.376;2022-08-21T05:45:35;16.00;99.90
37984;DHT22;61733;50.882;4.376;2022-08-21T05:48:09;16.10;99.90
37984;DHT22;61733;50.882;4.376;2022-08-21T05:50:35;16.10;99.90
37984;DHT22;61733;50.882;4.376;2022-08-21T05:53:03;16.10;99.90
37984;DHT22;61733;50.882;4.376;2022-08-21T05:55:29;16.10;99.90
37984;DHT22;61733;50.882;4.376;2022-08-21T05:57:55;16.20;99.90
37984;DHT22;61733;50.882;4.376;2022-08-21T06:00:20;16.20;99.90
37984;DHT22;61733;50.882;4.376;2022-08-21T06:02:48;16.20;99.90
37984;DHT22;61733;50.882;4.376;2022-08-21T06:05:17;16.30;99.90
37984;DHT22;61733;50.882;4.376;2022-08-21T06:07:43;16.30;99.90
37984;DHT22;61733;50.882;4.376;2022-08-21T06:10:09;16.30;99.90
37984;DHT22;61733;50.882;4.376;2022-08-21T06:12:35;16.40;99.90
37984;DHT22;61733;50.882;4.376;2022-08-21T06:15:00;16.40;99.90
37984;DHT22;61733;50.882;4.376;2022-08-21T06:17:26;16.50;99.90
37984;DHT22;61733;50.882;4.376;2022-08-21T06:19:55;16.50;99.90
37984;DHT22;61733;50.882;4.376;2022-08-21T06:22:21;16.50;99.90
37984;DHT22;61733;50.882;4.376;2022-08-21T06:24:46;16.60;99.90
37984;DHT22;61733;50.882;4.376;2022-08-21T06:27:12;16.60;99.90
37984;DHT22;61733;50.882;4.376;2022-08-21T06:29:38;16.70;99.90
37984;DHT22;61733;50.882;4.376;2022-08-21T06:32:06;16.70;99.90
37984;DHT22;61733;50.882;4.376;2022-08-21T06:34:36;16.80;99.90
37984;DHT22;61733;50.882;4.376;2022-08-21T06:37:04;16.80;99.90
37984;DHT22;61733;50.882;4.376;2022-08-21T06:39:31;16.90;99.90
37984;DHT22;61733;50.882;4.376;2022-08-21T06:41:57;16.90;99.90
37984;DHT22;61733;50.882;4.376;2022-08-21T06:44:23;17.00;99.90
37984;DHT22;61733;50.882;4.376;2022-08-21T06:46:52;17.10;99.90
37984;DHT22;61733;50.882;4.376;2022-08-21T06:49:18;17.10;99.90
37984;DHT22;61733;50.882;4.376;2022-08-21T06:51:44;17.20;99.90
37984;DHT22;61733;50.882;4.376;2022-08-21T06:54:10;17.20;99.90
37984;DHT22;61733;50.882;4.376;2022-08-21T06:56:35;17.30;99.90
37984;DHT22;61733;50.882;4.376;2022-08-21T06:59:04;17.40;99.90
37984;DHT22;61733;50.882;4.376;2022-08-21T07:01:30;17.40;99.90
37984;DHT22;61733;50.882;4.376;2022-08-21T07:03:56;17.50;99.90
37984;DHT22;61733;50.882;4.376;2022-08-21T07:06:22;17.60;99.90
37984;DHT22;61733;50.882;4.376;2022-08-21T07:08:48;17.60;99.90
37984;DHT22;61733;50.882;4.376;2022-08-21T07:11:22;17.70;99.90
37984;DHT22;61733;50.882;4.376;2022-08-21T07:13:49;17.80;99.90
37984;DHT22;61733;50.882;4.376;2022-08-21T07:16:18;17.80;99.90
37984;DHT22;61733;50.882;4.376;2022-08-21T07:18:44;17.90;99.90
37984;DHT22;61733;50.882;4.376;2022-08-21T07:21:10;18.00;99.90
37984;DHT22;61733;50.882;4.376;2022-08-21T07:23:40;18.10;99.90
37984;DHT22;61733;50.882;4.376;2022-08-21T07:26:06;18.20;99.90
37984;DHT22;61733;50.882;4.376;2022-08-21T07:28:33;18.20;99.90
37984;DHT22;61733;50.882;4.376;2022-08-21T07:31:02;18.30;99.90
37984;DHT22;61733;50.882;4.376;2022-08-21T07:33:31;18.30;99.90
37984;DHT22;61733;50.882;4.376;2022-08-21T07:35:57;18.50;99.90
37984;DHT22;61733;50.882;4.376;2022-08-21T07:38:23;18.60;99.90
37984;DHT22;61733;50.882;4.376;2022-08-21T07:40:51;18.60;99.90
37984;DHT22;61733;50.882;4.376;2022-08-21T07:43:18;18.70;99.90
37984;DHT22;61733;50.882;4.376;2022-08-21T07:45:44;18.80;99.90
37984;DHT22;61733;50.882;4.376;2022-08-21T07:48:11;18.90;99.90
37984;DHT22;61733;50.882;4.376;2022-08-21T07:50:36;19.00;99.90
37984;DHT22;61733;50.882;4.376;2022-08-21T07:53:03;19.10;99.90
37984;DHT22;61733;50.882;4.376;2022-08-21T07:55:29;19.20;99.90
37984;DHT22;61733;50.882;4.376;2022-08-21T07:57:55;19.30;99.90
37984;DHT22;61733;50.882;4.376;2022-08-21T08:00:24;19.40;99.90
37984;DHT22;61733;50.882;4.376;2022-08-21T08:02:52;19.50;99.90
37984;DHT22;61733;50.882;4.376;2022-08-21T08:05:27;19.60;99.90
37984;DHT22;61733;50.882;4.376;2022-08-21T08:07:53;19.70;99.90
37984;DHT22;61733;50.882;4.376;2022-08-21T08:10:20;19.80;99.90
37984;DHT22;61733;50.882;4.376;2022-08-21T08:12:47;19.90;99.90
37984;DHT22;61733;50.882;4.376;2022-08-21T08:15:19;20.00;99.90
37984;DHT22;61733;50.882;4.376;2022-08-21T08:17:45;20.00;99.80
37984;DHT22;61733;50.882;4.376;2022-08-21T08:20:12;20.10;99.60
37984;DHT22;61733;50.882;4.376;2022-08-21T08:22:39;20.20;99.30
37984;DHT22;61733;50.882;4.376;2022-08-21T08:25:06;20.20;99.10
37984;DHT22;61733;50.882;4.376;2022-08-21T08:27:32;20.30;99.00
37984;DHT22;61733;50.882;4.376;2022-08-21T08:29:58;20.30;98.80
37984;DHT22;61733;50.882;4.376;2022-08-21T08:32:25;20.30;98.60
37984;DHT22;61733;50.882;4.376;2022-08-21T08:34:51;20.40;98.40
37984;DHT22;61733;50.882;4.376;2022-08-21T08:37:19;20.40;98.10
37984;DHT22;61733;50.882;4.376;2022-08-21T08:39:46;20.40;98.00
37984;DHT22;61733;50.882;4.376;2022-08-21T08:44:43;20.50;97.90
37984;DHT22;61733;50.882;4.376;2022-08-21T08:47:11;20.60;97.80
37984;DHT22;61733;50.882;4.376;2022-08-21T08:52:30;20.70;97.80
37984;DHT22;61733;50.882;4.376;2022-08-21T08:55:09;20.90;97.50
37984;DHT22;61733;50.882;4.376;2022-08-21T08:57:37;20.90;97.10
37984;DHT22;61733;50.882;4.376;2022-08-21T09:00:10;21.00;96.80
37984;DHT22;61733;50.882;4.376;2022-08-21T09:02:40;21.10;96.40
37984;DHT22;61733;50.882;4.376;2022-08-21T09:05:09;21.20;96.30
37984;DHT22;61733;50.882;4.376;2022-08-21T09:10:20;21.40;95.60
37984;DHT22;61733;50.882;4.376;2022-08-21T09:15:57;21.50;95.40
37984;DHT22;61733;50.882;4.376;2022-08-21T09:24:32;21.70;94.40
37984;DHT22;61733;50.882;4.376;2022-08-21T09:29:33;21.90;93.90
37984;DHT22;61733;50.882;4.376;2022-08-21T09:32:00;21.90;93.70
37984;DHT22;61733;50.882;4.376;2022-08-21T09:34:29;22.00;93.60
37984;DHT22;61733;50.882;4.376;2022-08-21T09:36:56;22.10;93.30
37984;DHT22;61733;50.882;4.376;2022-08-21T09:39:32;22.20;92.90
37984;DHT22;61733;50.882;4.376;2022-08-21T09:42:08;22.30;92.30
37984;DHT22;61733;50.882;4.376;2022-08-21T09:44:40;22.30;92.00
37984;DHT22;61733;50.882;4.376;2022-08-21T09:47:10;22.40;91.70
37984;DHT22;61733;50.882;4.376;2022-08-21T09:49:40;22.60;91.70
37984;DHT22;61733;50.882;4.376;2022-08-21T09:52:32;22.60;91.20
37984;DHT22;61733;50.882;4.376;2022-08-21T09:54:58;22.70;90.70
37984;DHT22;61733;50.882;4.376;2022-08-21T09:57:29;22.70;90.60
37984;DHT22;61733;50.882;4.376;2022-08-21T10:00:20;22.80;90.30
37984;DHT22;61733;50.882;4.376;2022-08-21T10:02:49;22.90;90.30
37984;DHT22;61733;50.882;4.376;2022-08-21T10:07:41;23.00;89.80
37984;DHT22;61733;50.882;4.376;2022-08-21T10:10:26;23.00;89.30
37984;DHT22;61733;50.882;4.376;2022-08-21T10:18:41;23.10;88.00
37984;DHT22;61733;50.882;4.376;2022-08-21T10:21:27;23.10;88.40
37984;DHT22;61733;50.882;4.376;2022-08-21T10:24:14;23.10;88.50
37984;DHT22;61733;50.882;4.376;2022-08-21T10:40:26;23.30;85.30
37984;DHT22;61733;50.882;4.376;2022-08-21T10:43:23;23.30;84.40
37984;DHT22;61733;50.882;4.376;2022-08-21T10:46:04;23.30;85.50
37984;DHT22;61733;50.882;4.376;2022-08-21T10:48:50;23.30;85.50
37984;DHT22;61733;50.882;4.376;2022-08-21T10:54:22;23.40;84.80
37984;DHT22;61733;50.882;4.376;2022-08-21T10:57:02;23.50;84.90
37984;DHT22;61733;50.882;4.376;2022-08-21T10:59:43;23.60;84.90
37984;DHT22;61733;50.882;4.376;2022-08-21T11:05:09;23.70;83.60
37984;DHT22;61733;50.882;4.376;2022-08-21T11:08:10;23.80;82.90
37984;DHT22;61733;50.882;4.376;2022-08-21T11:10:37;23.80;80.60
37984;DHT22;61733;50.882;4.376;2022-08-21T11:18:34;23.90;80.40
37984;DHT22;61733;50.882;4.376;2022-08-21T11:26:57;23.90;79.30
37984;DHT22;61733;50.882;4.376;2022-08-21T11:29:35;23.90;79.70
37984;DHT22;61733;50.882;4.376;2022-08-21T11:50:56;24.40;78.00
37984;DHT22;61733;50.882;4.376;2022-08-21T11:53:35;24.40;77.10
37984;DHT22;61733;50.882;4.376;2022-08-21T11:56:14;24.40;76.50
37984;DHT22;61733;50.882;4.376;2022-08-21T11:58:46;24.50;76.40
37984;DHT22;61733;50.882;4.376;2022-08-21T12:01:20;24.50;76.30
37984;DHT22;61733;50.882;4.376;2022-08-21T12:04:09;24.60;75.70
37984;DHT22;61733;50.882;4.376;2022-08-21T12:06:41;24.60;74.60
37984;DHT22;61733;50.882;4.376;2022-08-21T12:17:56;24.90;73.20
37984;DHT22;61733;50.882;4.376;2022-08-21T12:23:17;25.10;72.80
37984;DHT22;61733;50.882;4.376;2022-08-21T12:25:48;25.30;72.90
37984;DHT22;61733;50.882;4.376;2022-08-21T12:28:25;25.40;72.20
37984;DHT22;61733;50.882;4.376;2022-08-21T12:30:52;25.40;71.20
37984;DHT22;61733;50.882;4.376;2022-08-21T12:33:35;25.50;69.80
37984;DHT22;61733;50.882;4.376;2022-08-21T12:36:10;25.60;69.70
37984;DHT22;61733;50.882;4.376;2022-08-21T12:44:42;25.90;67.40
37984;DHT22;61733;50.882;4.376;2022-08-21T12:50:15;26.00;66.00
37984;DHT22;61733;50.882;4.376;2022-08-21T12:52:54;26.10;65.90
37984;DHT22;61733;50.882;4.376;2022-08-21T12:55:28;26.10;66.50
37984;DHT22;61733;50.882;4.376;2022-08-21T12:57:55;26.10;66.00
37984;DHT22;61733;50.882;4.376;2022-08-21T13:00:23;26.00;66.00
37984;DHT22;61733;50.882;4.376;2022-08-21T13:02:51;26.00;65.80
37984;DHT22;61733;50.882;4.376;2022-08-21T13:07:55;26.00;65.10
37984;DHT22;61733;50.882;4.376;2022-08-21T13:10:29;26.00;65.40
37984;DHT22;61733;50.882;4.376;2022-08-21T13:13:00;26.10;65.60
37984;DHT22;61733;50.882;4.376;2022-08-21T13:15:32;26.10;65.70
37984;DHT22;61733;50.882;4.376;2022-08-21T13:18:00;26.20;65.70
37984;DHT22;61733;50.882;4.376;2022-08-21T13:20:35;26.20;65.30
37984;DHT22;61733;50.882;4.376;2022-08-21T13:23:19;26.20;65.00
37984;DHT22;61733;50.882;4.376;2022-08-21T13:25:45;26.20;64.00
37984;DHT22;61733;50.882;4.376;2022-08-21T13:28:12;26.20;63.40
37984;DHT22;61733;50.882;4.376;2022-08-21T13:30:59;26.20;62.20
37984;DHT22;61733;50.882;4.376;2022-08-21T13:33:29;26.20;61.20
37984;DHT22;61733;50.882;4.376;2022-08-21T13:35:59;26.20;61.80
37984;DHT22;61733;50.882;4.376;2022-08-21T13:38:29;26.20;62.10
37984;DHT22;61733;50.882;4.376;2022-08-21T13:41:25;26.20;62.10
37984;DHT22;61733;50.882;4.376;2022-08-21T13:44:16;26.30;61.50
37984;DHT22;61733;50.882;4.376;2022-08-21T13:46:43;26.30;61.20
37984;DHT22;61733;50.882;4.376;2022-08-21T13:49:10;26.30;61.80
37984;DHT22;61733;50.882;4.376;2022-08-21T13:51:39;26.30;61.10
37984;DHT22;61733;50.882;4.376;2022-08-21T13:54:35;26.40;60.60
37984;DHT22;61733;50.882;4.376;2022-08-21T13:57:02;26.50;60.30
37984;DHT22;61733;50.882;4.376;2022-08-21T13:59:31;26.50;60.30
37984;DHT22;61733;50.882;4.376;2022-08-21T14:02:13;26.50;60.40
37984;DHT22;61733;50.882;4.376;2022-08-21T14:04:59;26.50;60.10
37984;DHT22;61733;50.882;4.376;2022-08-21T14:07:36;26.60;59.60
37984;DHT22;61733;50.882;4.376;2022-08-21T14:10:05;26.50;59.50
37984;DHT22;61733;50.882;4.376;2022-08-21T14:12:37;26.60;59.50
37984;DHT22;61733;50.882;4.376;2022-08-21T14:15:04;26.60;59.30
37984;DHT22;61733;50.882;4.376;2022-08-21T14:17:35;26.70;58.70
37984;DHT22;61733;50.882;4.376;2022-08-21T14:20:04;26.60;58.40
37984;DHT22;61733;50.882;4.376;2022-08-21T14:22:49;26.60;58.70
37984;DHT22;61733;50.882;4.376;2022-08-21T14:25:39;26.60;58.30
37984;DHT22;61733;50.882;4.376;2022-08-21T14:28:12;26.60;58.30
37984;DHT22;61733;50.882;4.376;2022-08-21T14:30:41;26.60;58.60
37984;DHT22;61733;50.882;4.376;2022-08-21T14:33:12;26.60;58.80
37984;DHT22;61733;50.882;4.376;2022-08-21T14:35:38;26.70;58.80
37984;DHT22;61733;50.882;4.376;2022-08-21T14:38:24;26.70;58.60
37984;DHT22;61733;50.882;4.376;2022-08-21T14:40:57;26.70;58.30
37984;DHT22;61733;50.882;4.376;2022-08-21T14:43:23;26.70;58.50
37984;DHT22;61733;50.882;4.376;2022-08-21T14:45:50;26.70;58.50
37984;DHT22;61733;50.882;4.376;2022-08-21T14:48:16;26.80;58.50
37984;DHT22;61733;50.882;4.376;2022-08-21T14:50:42;26.90;58.80
37984;DHT22;61733;50.882;4.376;2022-08-21T14:53:07;26.90;58.60
37984;DHT22;61733;50.882;4.376;2022-08-21T14:55:34;26.90;58.20
37984;DHT22;61733;50.882;4.376;2022-08-21T14:58:20;27.00;58.10
37984;DHT22;61733;50.882;4.376;2022-08-21T15:00:50;27.00;57.50
37984;DHT22;61733;50.882;4.376;2022-08-21T15:03:16;27.10;56.60
37984;DHT22;61733;50.882;4.376;2022-08-21T15:05:42;27.10;56.10
37984;DHT22;61733;50.882;4.376;2022-08-21T15:08:08;27.00;55.90
37984;DHT22;61733;50.882;4.376;2022-08-21T15:10:34;27.00;55.90
37984;DHT22;61733;50.882;4.376;2022-08-21T15:13:01;27.00;56.30
37984;DHT22;61733;50.882;4.376;2022-08-21T15:15:30;27.00;56.50
37984;DHT22;61733;50.882;4.376;2022-08-21T15:17:58;27.00;56.60
37984;DHT22;61733;50.882;4.376;2022-08-21T15:20:24;27.00;56.80
37984;DHT22;61733;50.882;4.376;2022-08-21T15:22:50;27.00;57.20
37984;DHT22;61733;50.882;4.376;2022-08-21T15:25:16;27.00;57.00
37984;DHT22;61733;50.882;4.376;2022-08-21T15:27:42;27.00;56.80
37984;DHT22;61733;50.882;4.376;2022-08-21T15:30:08;27.10;57.20
37984;DHT22;61733;50.882;4.376;2022-08-21T15:32:34;27.00;57.30
37984;DHT22;61733;50.882;4.376;2022-08-21T15:34:59;27.10;57.70
37984;DHT22;61733;50.882;4.376;2022-08-21T15:37:27;27.00;57.40
37984;DHT22;61733;50.882;4.376;2022-08-21T15:39:53;27.00;57.00
37984;DHT22;61733;50.882;4.376;2022-08-21T15:42:19;27.10;57.20
37984;DHT22;61733;50.882;4.376;2022-08-21T15:44:46;27.00;57.30
37984;DHT22;61733;50.882;4.376;2022-08-21T15:47:15;27.00;57.30
37984;DHT22;61733;50.882;4.376;2022-08-21T15:49:41;27.00;56.80
37984;DHT22;61733;50.882;4.376;2022-08-21T15:52:14;26.90;56.80
37984;DHT22;61733;50.882;4.376;2022-08-21T15:54:41;26.90;56.60
37984;DHT22;61733;50.882;4.376;2022-08-21T15:57:09;26.90;56.70
37984;DHT22;61733;50.882;4.376;2022-08-21T15:59:43;26.90;56.60
37984;DHT22;61733;50.882;4.376;2022-08-21T16:02:20;26.80;56.80
37984;DHT22;61733;50.882;4.376;2022-08-21T16:04:47;26.70;56.90
37984;DHT22;61733;50.882;4.376;2022-08-21T16:07:13;26.60;57.00
37984;DHT22;61733;50.882;4.376;2022-08-21T16:09:39;26.60;57.10
37984;DHT22;61733;50.882;4.376;2022-08-21T16:12:05;26.60;57.40
37984;DHT22;61733;50.882;4.376;2022-08-21T16:14:32;26.50;57.20
37984;DHT22;61733;50.882;4.376;2022-08-21T16:17:07;26.50;57.20
37984;DHT22;61733;50.882;4.376;2022-08-21T16:19:33;26.50;57.10
37984;DHT22;61733;50.882;4.376;2022-08-21T16:22:03;26.50;57.10
37984;DHT22;61733;50.882;4.376;2022-08-21T16:24:29;26.40;57.20
37984;DHT22;61733;50.882;4.376;2022-08-21T16:26:55;26.40;57.20
37984;DHT22;61733;50.882;4.376;2022-08-21T16:29:23;26.40;57.30
37984;DHT22;61733;50.882;4.376;2022-08-21T16:31:49;26.40;57.10
37984;DHT22;61733;50.882;4.376;2022-08-21T16:34:17;26.30;57.10
37984;DHT22;61733;50.882;4.376;2022-08-21T16:36:45;26.40;57.20
37984;DHT22;61733;50.882;4.376;2022-08-21T16:39:11;26.30;57.30
37984;DHT22;61733;50.882;4.376;2022-08-21T16:41:37;26.30;57.40
37984;DHT22;61733;50.882;4.376;2022-08-21T16:44:05;26.30;57.60
37984;DHT22;61733;50.882;4.376;2022-08-21T16:46:33;26.20;58.00
37984;DHT22;61733;50.882;4.376;2022-08-21T16:49:01;26.20;58.30
37984;DHT22;61733;50.882;4.376;2022-08-21T16:51:28;26.10;58.30
37984;DHT22;61733;50.882;4.376;2022-08-21T16:53:57;26.10;58.40
37984;DHT22;61733;50.882;4.376;2022-08-21T16:56:23;26.10;58.80
37984;DHT22;61733;50.882;4.376;2022-08-21T16:58:50;26.00;58.10
37984;DHT22;61733;50.882;4.376;2022-08-21T17:01:19;26.00;58.10
37984;DHT22;61733;50.882;4.376;2022-08-21T17:03:48;26.00;58.20
37984;DHT22;61733;50.882;4.376;2022-08-21T17:06:18;26.00;58.00
37984;DHT22;61733;50.882;4.376;2022-08-21T17:08:44;26.00;58.20
37984;DHT22;61733;50.882;4.376;2022-08-21T17:11:24;25.90;58.50
37984;DHT22;61733;50.882;4.376;2022-08-21T17:13:52;25.90;58.40
37984;DHT22;61733;50.882;4.376;2022-08-21T17:16:18;25.90;58.40
37984;DHT22;61733;50.882;4.376;2022-08-21T17:18:44;25.90;58.30
37984;DHT22;61733;50.882;4.376;2022-08-21T17:21:12;25.90;58.00
37984;DHT22;61733;50.882;4.376;2022-08-21T17:23:38;25.90;58.00